sensor_id;sensor_type;location;lat;lon;timestamp;temperature;humidity
4564;DHT22;2294;51.818;8.484;2022-09-02T00:01:44;14.00;99.90
4564;DHT22;2294;51.818;8.484;2022-09-02T00:04:15;14.00;99.90
4564;DHT22;2294;51.818;8.484;2022-09-02T00:06:43;15.10;99.90
4564;DHT22;2294;51.818;8.484;2022-09-02T00:09:13;13.80;99.90
4564;DHT22;2294;51.818;8.484;2022-09-02T00:11:41;13.80;99.90
4564;DHT22;2294;51.818;8.484;2022-09-02T00:14:12;13.90;99.90
4564;DHT22;2294;51.818;8.484;2022-09-02T00:16:41;13.90;99.90
4564;DHT22;2294;51.818;8.484;2022-09-02T00:19:16;13.90;99.90
4564;DHT22;2294;51.818;8.484;2022-09-02T00:21:44;13.80;99.90
4564;DHT22;2294;51.818;8.484;2022-09-02T00:24:11;13.80;99.90
4564;DHT22;2294;51.818;8.484;2022-09-02T00:26:38;13.80;99.90
4564;DHT22;2294;51.818;8.484;2022-09-02T00:29:05;13.80;99.90
4564;DHT22;2294;51.818;8.484;2022-09-02T00:31:32;13.80;99.90
4564;DHT22;2294;51.818;8.484;2022-09-02T00:34:03;13.80;99.90
4564;DHT22;2294;51.818;8.484;2022-09-02T00:36:30;13.80;99.90
4564;DHT22;2294;51.818;8.484;2022-09-02T00:38:58;13.70;99.90
4564;DHT22;2294;51.818;8.484;2022-09-02T00:41:27;13.70;99.90
4564;DHT22;2294;51.818;8.484;2022-09-02T00:43:57;13.80;99.90
4564;DHT22;2294;51.818;8.484;2022-09-02T00:46:26;13.80;99.90
4564;DHT22;2294;51.818;8.484;2022-09-02T00:48:56;13.80;99.90
4564;DHT22;2294;51.818;8.484;2022-09-02T00:51:27;13.80;99.90
4564;DHT22;2294;51.818;8.484;2022-09-02T00:53:54;13.70;99.90
4564;DHT22;2294;51.818;8.484;2022-09-02T00:56:23;13.70;99.90
4564;DHT22;2294;51.818;8.484;2022-09-02T00:58:52;13.60;99.90
4564;DHT22;2294;51.818;8.484;2022-09-02T01:01:19;13.60;99.90
4564;DHT22;2294;51.818;8.484;2022-09-02T01:03:48;13.70;99.90
4564;DHT22;2294;51.818;8.484;2022-09-02T01:06:19;13.60;99.90
4564;DHT22;2294;51.818;8.484;2022-09-02T01:08:51;13.70;99.90
4564;DHT22;2294;51.818;8.484;2022-09-02T01:11:21;13.70;99.90
4564;DHT22;2294;51.818;8.484;2022-09-02T01:13:48;13.60;99.90
4564;DHT22;2294;51.818;8.484;2022-09-02T01:16:20;13.60;99.90
4564;DHT22;2294;51.818;8.484;2022-09-02T01:18:51;13.70;99.90
4564;DHT22;2294;51.818;8.484;2022-09-02T01:21:18;13.70;99.90
4564;DHT22;2294;51.818;8.484;2022-09-02T01:23:49;13.70;99.90
4564;DHT22;2294;51.818;8.484;2022-09-02T01:26:17;13.60;99.90
4564;DHT22;2294;51.818;8.484;2022-09-02T01:28:44;13.70;99.90
4564;DHT22;2294;51.818;8.484;2022-09-02T01:31:11;13.70;99.90
4564;DHT22;2294;51.818;8.484;2022-09-02T01:33:38;13.70;99.90
4564;DHT22;2294;51.818;8.484;2022-09-02T01:36:05;13.60;99.90
4564;DHT22;2294;51.818;8.484;2022-09-02T01:38:33;13.70;99.90
4564;DHT22;2294;51.818;8.484;2022-09-02T01:41:01;13.70;99.90
4564;DHT22;2294;51.818;8.484;2022-09-02T01:43:28;13.60;99.90
4564;DHT22;2294;51.818;8.484;2022-09-02T01:45:56;13.80;99.90
4564;DHT22;2294;51.818;8.484;2022-09-02T01:48:24;13.80;99.90
4564;DHT22;2294;51.818;8.484;2022-09-02T01:50:54;13.80;99.90
4564;DHT22;2294;51.818;8.484;2022-09-02T01:53:22;13.70;99.90
4564;DHT22;2294;51.818;8.484;2022-09-02T01:55:49;13.70;99.90
4564;DHT22;2294;51.818;8.484;2022-09-02T01:58:18;13.70;99.90
4564;DHT22;2294;51.818;8.484;2022-09-02T02:00:45;13.70;99.90
4564;DHT22;2294;51.818;8.484;2022-09-02T02:03:13;13.70;99.90
4564;DHT22;2294;51.818;8.484;2022-09-02T02:05:40;13.70;99.90
4564;DHT22;2294;51.818;8.484;2022-09-02T02:08:07;13.60;99.90
4564;DHT22;2294;51.818;8.484;2022-09-02T02:10:34;13.60;99.90
4564;DHT22;2294;51.818;8.484;2022-09-02T02:13:01;13.60;99.90
4564;DHT22;2294;51.818;8.484;2022-09-02T02:15:29;13.50;99.90
4564;DHT22;2294;51.818;8.484;2022-09-02T02:17:56;13.60;99.90
4564;DHT22;2294;51.818;8.484;2022-09-02T02:20:24;13.50;99.90
4564;DHT22;2294;51.818;8.484;2022-09-02T02:22:52;13.40;99.90
4564;DHT22;2294;51.818;8.484;2022-09-02T02:25:19;13.50;99.90
4564;DHT22;2294;51.818;8.484;2022-09-02T02:27:46;13.30;99.90
4564;DHT22;2294;51.818;8.484;2022-09-02T02:30:16;13.30;99.90
4564;DHT22;2294;51.818;8.484;2022-09-02T02:32:46;13.40;99.90
4564;DHT22;2294;51.818;8.484;2022-09-02T02:35:14;13.40;99.90
4564;DHT22;2294;51.818;8.484;2022-09-02T02:37:42;13.40;99.90
4564;DHT22;2294;51.818;8.484;2022-09-02T02:40:10;13.30;99.90
4564;DHT22;2294;51.818;8.484;2022-09-02T02:42:38;13.10;99.90
4564;DHT22;2294;51.818;8.484;2022-09-02T02:45:06;13.10;99.90
4564;DHT22;2294;51.818;8.484;2022-09-02T02:47:36;13.00;99.90
4564;DHT22;2294;51.818;8.484;2022-09-02T02:50:06;13.10;99.90
4564;DHT22;2294;51.818;8.484;2022-09-02T02:52:33;13.00;99.90
4564;DHT22;2294;51.818;8.484;2022-09-02T02:55:00;12.90;99.90
4564;DHT22;2294;51.818;8.484;2022-09-02T02:57:27;13.00;99.90
4564;DHT22;2294;51.818;8.484;2022-09-02T02:59:54;12.90;99.90
4564;DHT22;2294;51.818;8.484;2022-09-02T03:02:22;12.90;99.90
4564;DHT22;2294;51.818;8.484;2022-09-02T03:04:49;12.80;99.90
4564;DHT22;2294;51.818;8.484;2022-09-02T03:07:20;12.80;99.90
4564;DHT22;2294;51.818;8.484;2022-09-02T03:09:47;12.70;99.90
4564;DHT22;2294;51.818;8.484;2022-09-02T03:12:14;12.70;99.90
4564;DHT22;2294;51.818;8.484;2022-09-02T03:14:41;12.70;99.90
4564;DHT22;2294;51.818;8.484;2022-09-02T03:17:08;12.70;99.90
4564;DHT22;2294;51.818;8.484;2022-09-02T03:19:35;12.70;99.90
4564;DHT22;2294;51.818;8.484;2022-09-02T03:22:03;12.60;99.90
4564;DHT22;2294;51.818;8.484;2022-09-02T03:24:32;12.60;99.90
4564;DHT22;2294;51.818;8.484;2022-09-02T03:26:59;12.50;99.90
4564;DHT22;2294;51.818;8.484;2022-09-02T03:29:26;12.40;99.90
4564;DHT22;2294;51.818;8.484;2022-09-02T03:31:53;12.40;99.90
4564;DHT22;2294;51.818;8.484;2022-09-02T03:34:20;12.40;99.90
4564;DHT22;2294;51.818;8.484;2022-09-02T03:36:47;12.30;99.90
4564;DHT22;2294;51.818;8.484;2022-09-02T03:39:14;12.30;99.90
4564;DHT22;2294;51.818;8.484;2022-09-02T03:41:42;12.30;99.90
4564;DHT22;2294;51.818;8.484;2022-09-02T03:44:10;12.20;99.90
4564;DHT22;2294;51.818;8.484;2022-09-02T03:46:37;12.20;99.90
4564;DHT22;2294;51.818;8.484;2022-09-02T03:49:04;12.20;99.90
4564;DHT22;2294;51.818;8.484;2022-09-02T03:51:31;12.20;99.90
4564;DHT22;2294;51.818;8.484;2022-09-02T03:53:58;11.90;99.90
4564;DHT22;2294;51.818;8.484;2022-09-02T03:56:27;12.00;99.90
4564;DHT22;2294;51.818;8.484;2022-09-02T03:58:55;12.00;99.90
4564;DHT22;2294;51.818;8.484;2022-09-02T04:01:23;11.90;99.90
4564;DHT22;2294;51.818;8.484;2022-09-02T04:03:50;12.00;99.90
4564;DHT22;2294;51.818;8.484;2022-09-02T04:06:20;11.80;99.90
4564;DHT22;2294;51.818;8.484;2022-09-02T04:08:48;11.70;99.90
4564;DHT22;2294;51.818;8.484;2022-09-02T04:11:18;11.60;99.90
4564;DHT22;2294;51.818;8.484;2022-09-02T04:13:46;11.70;99.90
4564;DHT22;2294;51.818;8.484;2022-09-02T04:16:16;11.60;99.90
4564;DHT22;2294;51.818;8.484;2022-09-02T04:18:43;11.50;99.90
4564;DHT22;2294;51.818;8.484;2022-09-02T04:21:11;11.60;99.90
4564;DHT22;2294;51.818;8.484;2022-09-02T04:23:38;11.70;99.90
4564;DHT22;2294;51.818;8.484;2022-09-02T04:26:07;11.50;99.90
4564;DHT22;2294;51.818;8.484;2022-09-02T04:28:34;11.60;99.90
4564;DHT22;2294;51.818;8.484;2022-09-02T04:31:03;11.40;99.90
4564;DHT22;2294;51.818;8.484;2022-09-02T04:33:32;11.40;99.90
4564;DHT22;2294;51.818;8.484;2022-09-02T04:36:03;11.50;99.90
4564;DHT22;2294;51.818;8.484;2022-09-02T04:38:30;11.50;99.90
4564;DHT22;2294;51.818;8.484;2022-09-02T04:40:57;11.50;99.90
4564;DHT22;2294;51.818;8.484;2022-09-02T04:43:24;11.60;99.90
4564;DHT22;2294;51.818;8.484;2022-09-02T04:45:51;11.60;99.90
4564;DHT22;2294;51.818;8.484;2022-09-02T04:48:18;11.50;99.90
4564;DHT22;2294;51.818;8.484;2022-09-02T04:50:46;11.60;99.90
4564;DHT22;2294;51.818;8.484;2022-09-02T04:53:13;11.80;99.90
4564;DHT22;2294;51.818;8.484;2022-09-02T04:55:41;11.80;99.90
4564;DHT22;2294;51.818;8.484;2022-09-02T04:58:08;11.70;99.90
4564;DHT22;2294;51.818;8.484;2022-09-02T05:00:36;11.70;99.90
4564;DHT22;2294;51.818;8.484;2022-09-02T05:03:03;11.70;99.90
4564;DHT22;2294;51.818;8.484;2022-09-02T05:05:31;11.60;99.90
4564;DHT22;2294;51.818;8.484;2022-09-02T05:08:00;11.60;99.90
4564;DHT22;2294;51.818;8.484;2022-09-02T05:10:29;11.60;99.90
4564;DHT22;2294;51.818;8.484;2022-09-02T05:12:57;11.60;99.90
4564;DHT22;2294;51.818;8.484;2022-09-02T05:15:25;11.60;99.90
4564;DHT22;2294;51.818;8.484;2022-09-02T05:17:53;11.70;99.90
4564;DHT22;2294;51.818;8.484;2022-09-02T05:20:20;11.80;99.90
4564;DHT22;2294;51.818;8.484;2022-09-02T05:22:47;11.70;99.90
4564;DHT22;2294;51.818;8.484;2022-09-02T05:25:16;11.80;99.90
4564;DHT22;2294;51.818;8.484;2022-09-02T05:27:43;11.90;99.90
4564;DHT22;2294;51.818;8.484;2022-09-02T05:30:11;11.80;99.90
4564;DHT22;2294;51.818;8.484;2022-09-02T05:32:38;11.90;99.90
4564;DHT22;2294;51.818;8.484;2022-09-02T05:35:06;12.10;99.90
4564;DHT22;2294;51.818;8.484;2022-09-02T05:37:33;12.10;99.90
4564;DHT22;2294;51.818;8.484;2022-09-02T05:40:01;12.10;99.90
4564;DHT22;2294;51.818;8.484;2022-09-02T05:42:29;12.20;99.90
4564;DHT22;2294;51.818;8.484;2022-09-02T05:44:57;12.20;99.90
4564;DHT22;2294;51.818;8.484;2022-09-02T05:47:24;12.30;99.90
4564;DHT22;2294;51.818;8.484;2022-09-02T05:49:51;12.40;99.90
4564;DHT22;2294;51.818;8.484;2022-09-02T05:52:18;12.50;99.90
4564;DHT22;2294;51.818;8.484;2022-09-02T05:54:45;12.50;99.90
4564;DHT22;2294;51.818;8.484;2022-09-02T05:57:15;12.60;99.90
4564;DHT22;2294;51.818;8.484;2022-09-02T05:59:44;12.70;99.90
4564;DHT22;2294;51.818;8.484;2022-09-02T06:02:13;12.80;99.90
4564;DHT22;2294;51.818;8.484;2022-09-02T06:04:42;12.90;99.90
4564;DHT22;2294;51.818;8.484;2022-09-02T06:07:10;12.80;99.90
4564;DHT22;2294;51.818;8.484;2022-09-02T06:09:37;12.80;99.90
4564;DHT22;2294;51.818;8.484;2022-09-02T06:12:06;12.90;99.90
4564;DHT22;2294;51.818;8.484;2022-09-02T06:14:33;12.90;99.90
4564;DHT22;2294;51.818;8.484;2022-09-02T06:17:04;12.90;99.90
4564;DHT22;2294;51.818;8.484;2022-09-02T06:19:31;13.00;99.90
4564;DHT22;2294;51.818;8.484;2022-09-02T06:22:00;13.00;99.90
4564;DHT22;2294;51.818;8.484;2022-09-02T06:24:29;13.10;99.90
4564;DHT22;2294;51.818;8.484;2022-09-02T06:26:56;13.30;99.90
4564;DHT22;2294;51.818;8.484;2022-09-02T06:29:25;13.60;99.90
4564;DHT22;2294;51.818;8.484;2022-09-02T06:31:53;13.70;99.90
4564;DHT22;2294;51.818;8.484;2022-09-02T06:34:22;14.00;99.90
4564;DHT22;2294;51.818;8.484;2022-09-02T06:36:52;14.30;99.90
4564;DHT22;2294;51.818;8.484;2022-09-02T06:39:20;14.60;99.90
4564;DHT22;2294;51.818;8.484;2022-09-02T06:41:48;14.80;99.90
4564;DHT22;2294;51.818;8.484;2022-09-02T06:44:16;14.90;99.90
4564;DHT22;2294;51.818;8.484;2022-09-02T06:46:44;15.00;99.90
4564;DHT22;2294;51.818;8.484;2022-09-02T06:49:13;15.10;99.90
4564;DHT22;2294;51.818;8.484;2022-09-02T06:51:44;15.20;99.90
4564;DHT22;2294;51.818;8.484;2022-09-02T06:54:13;15.30;99.90
4564;DHT22;2294;51.818;8.484;2022-09-02T06:56:41;15.50;99.90
4564;DHT22;2294;51.818;8.484;2022-09-02T06:59:09;15.80;99.90
4564;DHT22;2294;51.818;8.484;2022-09-02T07:01:36;16.10;99.90
4564;DHT22;2294;51.818;8.484;2022-09-02T07:04:03;16.40;99.90
4564;DHT22;2294;51.818;8.484;2022-09-02T07:06:50;16.60;99.90
4564;DHT22;2294;51.818;8.484;2022-09-02T07:09:20;16.70;99.90
4564;DHT22;2294;51.818;8.484;2022-09-02T07:11:49;16.80;99.90
4564;DHT22;2294;51.818;8.484;2022-09-02T07:14:18;16.90;99.90
4564;DHT22;2294;51.818;8.484;2022-09-02T07:16:49;17.00;99.90
4564;DHT22;2294;51.818;8.484;2022-09-02T07:19:16;17.10;99.90
4564;DHT22;2294;51.818;8.484;2022-09-02T07:21:44;17.40;99.90
4564;DHT22;2294;51.818;8.484;2022-09-02T07:24:14;17.50;99.90
4564;DHT22;2294;51.818;8.484;2022-09-02T07:26:42;17.50;99.90
4564;DHT22;2294;51.818;8.484;2022-09-02T07:29:09;17.50;99.90
4564;DHT22;2294;51.818;8.484;2022-09-02T07:31:39;17.50;99.90
4564;DHT22;2294;51.818;8.484;2022-09-02T07:34:07;17.50;99.90
4564;DHT22;2294;51.818;8.484;2022-09-02T07:36:34;17.60;99.90
4564;DHT22;2294;51.818;8.484;2022-09-02T07:39:02;17.50;99.90
4564;DHT22;2294;51.818;8.484;2022-09-02T07:41:30;17.50;99.90
4564;DHT22;2294;51.818;8.484;2022-09-02T07:43:57;17.50;99.90
4564;DHT22;2294;51.818;8.484;2022-09-02T07:46:24;17.50;99.90
4564;DHT22;2294;51.818;8.484;2022-09-02T07:48:53;17.40;99.90
4564;DHT22;2294;51.818;8.484;2022-09-02T07:51:21;17.40;99.90
4564;DHT22;2294;51.818;8.484;2022-09-02T07:53:48;17.30;99.90
4564;DHT22;2294;51.818;8.484;2022-09-02T07:59:39;17.20;99.90
4564;DHT22;2294;51.818;8.484;2022-09-02T08:02:07;17.30;99.90
4564;DHT22;2294;51.818;8.484;2022-09-02T08:04:34;17.40;99.90
4564;DHT22;2294;51.818;8.484;2022-09-02T08:07:01;17.70;99.90
4564;DHT22;2294;51.818;8.484;2022-09-02T08:09:28;17.90;99.90
4564;DHT22;2294;51.818;8.484;2022-09-02T08:11:55;18.10;99.90
4564;DHT22;2294;51.818;8.484;2022-09-02T08:14:24;18.20;99.90
4564;DHT22;2294;51.818;8.484;2022-09-02T08:16:55;18.30;99.90
4564;DHT22;2294;51.818;8.484;2022-09-02T08:19:23;18.50;99.90
4564;DHT22;2294;51.818;8.484;2022-09-02T08:21:51;18.60;99.90
4564;DHT22;2294;51.818;8.484;2022-09-02T08:24:17;18.70;99.90
4564;DHT22;2294;51.818;8.484;2022-09-02T08:26:44;18.80;99.90
4564;DHT22;2294;51.818;8.484;2022-09-02T08:29:11;19.00;99.90
4564;DHT22;2294;51.818;8.484;2022-09-02T08:31:38;19.20;99.90
4564;DHT22;2294;51.818;8.484;2022-09-02T08:34:06;19.20;99.90
4564;DHT22;2294;51.818;8.484;2022-09-02T08:36:34;19.40;99.90
4564;DHT22;2294;51.818;8.484;2022-09-02T08:39:02;19.50;99.90
4564;DHT22;2294;51.818;8.484;2022-09-02T08:41:33;19.60;99.90
4564;DHT22;2294;51.818;8.484;2022-09-02T08:44:06;19.70;99.90
4564;DHT22;2294;51.818;8.484;2022-09-02T08:46:33;20.00;99.90
4564;DHT22;2294;51.818;8.484;2022-09-02T08:49:03;20.00;99.90
4564;DHT22;2294;51.818;8.484;2022-09-02T08:51:34;20.10;99.90
4564;DHT22;2294;51.818;8.484;2022-09-02T08:54:05;20.30;99.90
4564;DHT22;2294;51.818;8.484;2022-09-02T08:56:33;20.70;99.90
4564;DHT22;2294;51.818;8.484;2022-09-02T08:59:01;20.80;99.90
4564;DHT22;2294;51.818;8.484;2022-09-02T09:01:38;20.70;99.90
4564;DHT22;2294;51.818;8.484;2022-09-02T09:04:20;20.70;99.90
4564;DHT22;2294;51.818;8.484;2022-09-02T09:07:02;20.80;99.90
4564;DHT22;2294;51.818;8.484;2022-09-02T09:09:43;20.80;99.90
4564;DHT22;2294;51.818;8.484;2022-09-02T09:12:16;20.80;99.90
4564;DHT22;2294;51.818;8.484;2022-09-02T09:14:49;21.00;99.90
4564;DHT22;2294;51.818;8.484;2022-09-02T09:17:25;21.00;99.90
4564;DHT22;2294;51.818;8.484;2022-09-02T09:19:54;21.00;99.90
4564;DHT22;2294;51.818;8.484;2022-09-02T09:22:30;21.00;99.90
4564;DHT22;2294;51.818;8.484;2022-09-02T09:24:57;20.90;99.90
4564;DHT22;2294;51.818;8.484;2022-09-02T09:27:25;20.90;99.90
4564;DHT22;2294;51.818;8.484;2022-09-02T09:29:52;21.00;99.90
4564;DHT22;2294;51.818;8.484;2022-09-02T09:32:25;21.00;99.90
4564;DHT22;2294;51.818;8.484;2022-09-02T09:34:56;20.80;99.90
4564;DHT22;2294;51.818;8.484;2022-09-02T09:37:34;20.70;99.90
4564;DHT22;2294;51.818;8.484;2022-09-02T09:40:20;20.90;99.90
4564;DHT22;2294;51.818;8.484;2022-09-02T09:42:50;20.90;99.90
4564;DHT22;2294;51.818;8.484;2022-09-02T09:45:24;21.20;99.90
4564;DHT22;2294;51.818;8.484;2022-09-02T09:48:20;21.40;99.90
4564;DHT22;2294;51.818;8.484;2022-09-02T09:51:12;21.30;99.90
4564;DHT22;2294;51.818;8.484;2022-09-02T09:53:42;21.40;99.90
4564;DHT22;2294;51.818;8.484;2022-09-02T09:56:24;21.30;99.90
4564;DHT22;2294;51.818;8.484;2022-09-02T09:58:53;21.40;99.90
4564;DHT22;2294;51.818;8.484;2022-09-02T10:01:22;21.60;99.90
4564;DHT22;2294;51.818;8.484;2022-09-02T10:03:51;21.40;99.90
4564;DHT22;2294;51.818;8.484;2022-09-02T10:06:21;21.50;99.90
4564;DHT22;2294;51.818;8.484;2022-09-02T10:08:55;21.60;99.90
4564;DHT22;2294;51.818;8.484;2022-09-02T10:11:24;21.50;99.90
4564;DHT22;2294;51.818;8.484;2022-09-02T10:13:57;21.90;99.90
4564;DHT22;2294;51.818;8.484;2022-09-02T10:16:37;21.60;99.90
4564;DHT22;2294;51.818;8.484;2022-09-02T10:19:11;21.70;99.90
4564;DHT22;2294;51.818;8.484;2022-09-02T10:22:05;21.80;99.90
4564;DHT22;2294;51.818;8.484;2022-09-02T10:24:51;22.00;99.90
4564;DHT22;2294;51.818;8.484;2022-09-02T10:27:31;22.10;99.90
4564;DHT22;2294;51.818;8.484;2022-09-02T10:30:04;21.90;99.90
4564;DHT22;2294;51.818;8.484;2022-09-02T10:32:47;22.20;99.90
4564;DHT22;2294;51.818;8.484;2022-09-02T10:35:24;22.20;99.90
4564;DHT22;2294;51.818;8.484;2022-09-02T10:38:04;22.20;99.90
4564;DHT22;2294;51.818;8.484;2022-09-02T10:40:40;22.50;99.90
4564;DHT22;2294;51.818;8.484;2022-09-02T10:43:16;22.90;99.90
4564;DHT22;2294;51.818;8.484;2022-09-02T10:45:45;23.10;99.90
4564;DHT22;2294;51.818;8.484;2022-09-02T10:51:10;22.80;99.90
4564;DHT22;2294;51.818;8.484;2022-09-02T10:53:49;22.90;99.90
4564;DHT22;2294;51.818;8.484;2022-09-02T10:56:23;23.10;99.90
4564;DHT22;2294;51.818;8.484;2022-09-02T10:58:55;23.30;99.90
4564;DHT22;2294;51.818;8.484;2022-09-02T11:01:24;23.40;99.90
4564;DHT22;2294;51.818;8.484;2022-09-02T11:03:59;23.50;98.50
4564;DHT22;2294;51.818;8.484;2022-09-02T11:06:29;23.70;91.60
4564;DHT22;2294;51.818;8.484;2022-09-02T11:08:59;23.70;63.80
4564;DHT22;2294;51.818;8.484;2022-09-02T11:11:32;24.00;43.60
4564;DHT22;2294;51.818;8.484;2022-09-02T11:14:14;23.80;23.70
4564;DHT22;2294;51.818;8.484;2022-09-02T11:16:45;24.10;3.70
4564;DHT22;2294;51.818;8.484;2022-09-02T11:19:17;24.00;1.00
4564;DHT22;2294;51.818;8.484;2022-09-02T11:21:51;24.10;1.00
4564;DHT22;2294;51.818;8.484;2022-09-02T11:24:25;24.20;1.00
4564;DHT22;2294;51.818;8.484;2022-09-02T11:26:58;24.30;1.00
4564;DHT22;2294;51.818;8.484;2022-09-02T11:29:34;24.40;1.00
4564;DHT22;2294;51.818;8.484;2022-09-02T11:32:09;24.40;1.00
4564;DHT22;2294;51.818;8.484;2022-09-02T11:34:42;24.60;1.00
4564;DHT22;2294;51.818;8.484;2022-09-02T11:37:12;24.70;1.00
4564;DHT22;2294;51.818;8.484;2022-09-02T11:39:43;24.80;1.00
4564;DHT22;2294;51.818;8.484;2022-09-02T11:42:22;24.90;1.00
4564;DHT22;2294;51.818;8.484;2022-09-02T11:45:06;25.30;1.00
4564;DHT22;2294;51.818;8.484;2022-09-02T11:47:54;25.10;1.00
4564;DHT22;2294;51.818;8.484;2022-09-02T11:53:28;25.10;99.90
4564;DHT22;2294;51.818;8.484;2022-09-02T11:56:00;25.30;99.90
4564;DHT22;2294;51.818;8.484;2022-09-02T11:58:35;25.20;99.90
4564;DHT22;2294;51.818;8.484;2022-09-02T12:01:22;25.10;99.90
4564;DHT22;2294;51.818;8.484;2022-09-02T12:03:55;25.30;99.90
4564;DHT22;2294;51.818;8.484;2022-09-02T12:06:23;25.10;99.90
4564;DHT22;2294;51.818;8.484;2022-09-02T12:09:08;25.20;99.90
4564;DHT22;2294;51.818;8.484;2022-09-02T12:11:41;25.40;99.90
4564;DHT22;2294;51.818;8.484;2022-09-02T12:21:07;25.60;51.50
4564;DHT22;2294;51.818;8.484;2022-09-02T12:24:07;25.40;1.00
4564;DHT22;2294;51.818;8.484;2022-09-02T12:29:52;26.00;99.90
4564;DHT22;2294;51.818;8.484;2022-09-02T12:35:50;26.20;1.00
4564;DHT22;2294;51.818;8.484;2022-09-02T12:38:26;26.40;33.20
4564;DHT22;2294;51.818;8.484;2022-09-02T12:40:57;26.20;53.10
4564;DHT22;2294;51.818;8.484;2022-09-02T12:43:32;26.20;64.70
4564;DHT22;2294;51.818;8.484;2022-09-02T12:46:11;26.10;1.00
4564;DHT22;2294;51.818;8.484;2022-09-02T12:48:43;25.40;1.00
4564;DHT22;2294;51.818;8.484;2022-09-02T12:51:53;24.90;1.00
4564;DHT22;2294;51.818;8.484;2022-09-02T12:54:26;24.70;1.00
4564;DHT22;2294;51.818;8.484;2022-09-02T12:56:57;24.90;1.00
4564;DHT22;2294;51.818;8.484;2022-09-02T12:59:28;24.60;1.00
4564;DHT22;2294;51.818;8.484;2022-09-02T13:02:08;24.90;1.00
4564;DHT22;2294;51.818;8.484;2022-09-02T13:04:44;24.60;1.00
4564;DHT22;2294;51.818;8.484;2022-09-02T13:07:51;24.40;1.00
4564;DHT22;2294;51.818;8.484;2022-09-02T13:13:39;25.00;1.00
4564;DHT22;2294;51.818;8.484;2022-09-02T13:16:12;24.90;1.00
4564;DHT22;2294;51.818;8.484;2022-09-02T13:19:03;25.60;1.00
4564;DHT22;2294;51.818;8.484;2022-09-02T13:22:04;24.60;1.00
4564;DHT22;2294;51.818;8.484;2022-09-02T13:27:52;24.50;26.80
4564;DHT22;2294;51.818;8.484;2022-09-02T13:30:36;24.60;24.80
4564;DHT22;2294;51.818;8.484;2022-09-02T13:33:11;24.60;44.20
4564;DHT22;2294;51.818;8.484;2022-09-02T13:35:39;24.70;67.40
4564;DHT22;2294;51.818;8.484;2022-09-02T13:38:09;25.10;99.90
4564;DHT22;2294;51.818;8.484;2022-09-02T13:40:37;24.90;99.10
4564;DHT22;2294;51.818;8.484;2022-09-02T13:43:17;25.20;99.90
4564;DHT22;2294;51.818;8.484;2022-09-02T13:45:46;25.80;99.90
4564;DHT22;2294;51.818;8.484;2022-09-02T13:48:15;25.00;93.80
4564;DHT22;2294;51.818;8.484;2022-09-02T13:50:45;24.60;79.20
4564;DHT22;2294;51.818;8.484;2022-09-02T13:53:18;26.00;99.90
4564;DHT22;2294;51.818;8.484;2022-09-02T13:55:48;28.20;1.00
4564;DHT22;2294;51.818;8.484;2022-09-02T13:58:29;29.80;90.20
4564;DHT22;2294;51.818;8.484;2022-09-02T14:01:08;30.30;80.00
4564;DHT22;2294;51.818;8.484;2022-09-02T14:03:45;29.40;86.50
4564;DHT22;2294;51.818;8.484;2022-09-02T14:06:13;28.30;86.20
4564;DHT22;2294;51.818;8.484;2022-09-02T14:08:41;29.90;85.90
4564;DHT22;2294;51.818;8.484;2022-09-02T14:11:08;30.80;76.80
4564;DHT22;2294;51.818;8.484;2022-09-02T14:13:42;30.80;74.70
4564;DHT22;2294;51.818;8.484;2022-09-02T14:16:27;30.80;70.00
4564;DHT22;2294;51.818;8.484;2022-09-02T14:19:05;31.50;69.80
4564;DHT22;2294;51.818;8.484;2022-09-02T14:21:33;30.90;64.40
4564;DHT22;2294;51.818;8.484;2022-09-02T14:24:01;31.70;60.60
4564;DHT22;2294;51.818;8.484;2022-09-02T14:26:32;30.20;57.30
4564;DHT22;2294;51.818;8.484;2022-09-02T14:29:04;29.20;59.10
4564;DHT22;2294;51.818;8.484;2022-09-02T14:31:31;31.00;56.40
4564;DHT22;2294;51.818;8.484;2022-09-02T14:33:59;31.10;55.10
4564;DHT22;2294;51.818;8.484;2022-09-02T14:36:34;28.70;58.20
4564;DHT22;2294;51.818;8.484;2022-09-02T14:39:13;27.40;62.80
4564;DHT22;2294;51.818;8.484;2022-09-02T14:41:46;26.80;63.30
4564;DHT22;2294;51.818;8.484;2022-09-02T14:44:20;26.80;66.20
4564;DHT22;2294;51.818;8.484;2022-09-02T14:46:49;30.10;63.60
4564;DHT22;2294;51.818;8.484;2022-09-02T14:49:20;31.70;58.70
4564;DHT22;2294;51.818;8.484;2022-09-02T14:51:49;31.00;58.10
4564;DHT22;2294;51.818;8.484;2022-09-02T14:54:34;30.50;56.20
4564;DHT22;2294;51.818;8.484;2022-09-02T14:57:02;30.10;58.00
4564;DHT22;2294;51.818;8.484;2022-09-02T14:59:31;29.80;56.30
4564;DHT22;2294;51.818;8.484;2022-09-02T15:01:58;27.70;59.40
4564;DHT22;2294;51.818;8.484;2022-09-02T15:04:25;27.90;61.30
4564;DHT22;2294;51.818;8.484;2022-09-02T15:06:52;29.70;58.50
4564;DHT22;2294;51.818;8.484;2022-09-02T15:09:19;31.60;55.70
4564;DHT22;2294;51.818;8.484;2022-09-02T15:11:49;32.30;53.70
4564;DHT22;2294;51.818;8.484;2022-09-02T15:14:17;32.30;52.70
4564;DHT22;2294;51.818;8.484;2022-09-02T15:16:45;32.20;54.90
4564;DHT22;2294;51.818;8.484;2022-09-02T15:19:13;32.10;54.00
4564;DHT22;2294;51.818;8.484;2022-09-02T15:21:39;30.40;54.00
4564;DHT22;2294;51.818;8.484;2022-09-02T15:24:06;30.10;59.00
4564;DHT22;2294;51.818;8.484;2022-09-02T15:26:33;29.90;52.30
4564;DHT22;2294;51.818;8.484;2022-09-02T15:29:00;31.00;51.40
4564;DHT22;2294;51.818;8.484;2022-09-02T15:31:28;30.10;50.90
4564;DHT22;2294;51.818;8.484;2022-09-02T15:33:56;28.70;50.90
4564;DHT22;2294;51.818;8.484;2022-09-02T15:36:24;27.80;54.20
4564;DHT22;2294;51.818;8.484;2022-09-02T15:38:52;27.40;52.90
4564;DHT22;2294;51.818;8.484;2022-09-02T15:41:21;26.90;51.90
4564;DHT22;2294;51.818;8.484;2022-09-02T15:43:49;26.50;53.40
4564;DHT22;2294;51.818;8.484;2022-09-02T15:46:22;26.60;54.50
4564;DHT22;2294;51.818;8.484;2022-09-02T15:48:49;26.80;53.30
4564;DHT22;2294;51.818;8.484;2022-09-02T15:51:19;26.70;58.20
4564;DHT22;2294;51.818;8.484;2022-09-02T15:53:46;26.50;52.70
4564;DHT22;2294;51.818;8.484;2022-09-02T15:56:15;27.50;54.00
4564;DHT22;2294;51.818;8.484;2022-09-02T15:58:42;26.90;53.10
4564;DHT22;2294;51.818;8.484;2022-09-02T16:01:09;29.20;52.20
4564;DHT22;2294;51.818;8.484;2022-09-02T16:03:36;28.50;49.90
4564;DHT22;2294;51.818;8.484;2022-09-02T16:06:05;28.10;52.90
4564;DHT22;2294;51.818;8.484;2022-09-02T16:08:34;29.20;53.80
4564;DHT22;2294;51.818;8.484;2022-09-02T16:11:03;29.70;50.00
4564;DHT22;2294;51.818;8.484;2022-09-02T16:13:31;29.50;51.20
4564;DHT22;2294;51.818;8.484;2022-09-02T16:16:00;30.00;51.90
4564;DHT22;2294;51.818;8.484;2022-09-02T16:18:27;29.90;49.80
4564;DHT22;2294;51.818;8.484;2022-09-02T16:20:54;30.30;52.70
4564;DHT22;2294;51.818;8.484;2022-09-02T16:23:21;29.60;52.00
4564;DHT22;2294;51.818;8.484;2022-09-02T16:26:08;29.00;50.80
4564;DHT22;2294;51.818;8.484;2022-09-02T16:28:35;27.50;55.50
4564;DHT22;2294;51.818;8.484;2022-09-02T16:31:03;26.50;54.80
4564;DHT22;2294;51.818;8.484;2022-09-02T16:33:30;26.20;57.10
4564;DHT22;2294;51.818;8.484;2022-09-02T16:35:57;25.80;55.70
4564;DHT22;2294;51.818;8.484;2022-09-02T16:38:24;25.40;48.40
4564;DHT22;2294;51.818;8.484;2022-09-02T16:40:51;25.20;99.90
4564;DHT22;2294;51.818;8.484;2022-09-02T16:43:20;25.30;99.90
4564;DHT22;2294;51.818;8.484;2022-09-02T16:45:47;25.10;99.90
4564;DHT22;2294;51.818;8.484;2022-09-02T16:48:17;24.80;1.00
4564;DHT22;2294;51.818;8.484;2022-09-02T16:50:45;24.60;1.00
4564;DHT22;2294;51.818;8.484;2022-09-02T16:53:13;24.60;1.00